Time;durP1;ratioP1;P1;durP2;ratioP2;P2;SDS_P1;SDS_P2;PMS_P1;PMS_P2;Temp;Humidity;BMP_temperature;BMP_pressure;BME280_temperature;BME280_humidity;BME280_pressure;Samples;Min_cycle;Max_cycle;Signal;HPM_P1;HPM_P2
2022/05/12 00:02:05;;;;;;;2.42;1.10;;;19.70;53.30;;;;;;5070717;28;20052;-74
2022/05/12 00:04:32;;;;;;;2.50;1.20;;;19.70;53.30;;;;;;5106893;28;20131;-74
2022/05/12 00:07:00;;;;;;;1.75;1.08;;;19.70;57.60;;;;;;5090583;28;20416;-74
2022/05/12 00:09:27;;;;;;;2.70;1.58;;;19.50;57.60;;;;;;5090265;28;20056;-74
2022/05/12 00:11:53;;;;;;;2.30;1.10;;;19.70;53.30;;;;;;5090738;28;20052;-74
2022/05/12 00:14:20;;;;;;;3.58;1.00;;;19.50;58.40;;;;;;5090654;28;20056;-74
2022/05/12 00:16:47;;;;;;;1.45;0.95;;;19.70;53.30;;;;;;5091875;28;20127;-74
2022/05/12 00:19:14;;;;;;;2.05;1.00;;;19.60;53.30;;;;;;5088769;28;20070;-74
2022/05/12 00:21:40;;;;;;;1.98;1.10;;;18.70;58.10;;;;;;5082928;28;20131;-74
2022/05/12 00:24:09;;;;;;;2.10;1.02;;;19.60;52.70;;;;;;5070442;28;20053;-74
2022/05/12 00:26:37;;;;;;;2.45;1.17;;;19.60;53.30;;;;;;5104539;28;20063;-74
2022/05/12 00:29:05;;;;;;;1.58;1.05;;;19.60;53.30;;;;;;5070415;28;20084;-74
2022/05/12 00:31:32;;;;;;;1.10;1.00;;;19.50;57.70;;;;;;5070292;28;20048;-74
2022/05/12 00:33:59;;;;;;;1.52;0.90;;;19.60;53.30;;;;;;5070557;28;20139;-74
2022/05/12 00:36:26;;;;;;;1.23;0.93;;;19.60;53.30;;;;;;5075147;28;20052;-74
2022/05/12 00:38:52;;;;;;;1.38;0.90;;;19.60;58.20;;;;;;5073888;28;20062;-74
2022/05/12 00:41:20;;;;;;;2.20;1.00;;;19.50;58.90;;;;;;5074858;28;20489;-74
2022/05/12 00:43:48;;;;;;;1.90;0.90;;;19.50;58.80;;;;;;5073741;28;20140;-74
2022/05/12 00:46:16;;;;;;;1.35;1.00;;;19.50;53.30;;;;;;5073849;28;20405;-74
2022/05/12 00:48:43;;;;;;;1.10;1.00;;;20.40;58.00;;;;;;5073892;28;20078;-74
2022/05/12 00:51:11;;;;;;;2.17;0.88;;;19.50;53.30;;;;;;5074956;28;20052;-74
2022/05/12 00:53:38;;;;;;;2.20;1.10;;;19.50;57.90;;;;;;5073884;28;20143;-74
2022/05/12 00:56:06;;;;;;;1.83;1.10;;;20.20;57.90;;;;;;5074670;28;20139;-74
2022/05/12 00:58:34;;;;;;;2.60;1.10;;;19.50;53.30;;;;;;5107594;28;20102;-74
2022/05/12 01:01:02;;;;;;;1.70;1.00;;;19.50;53.30;;;;;;5073280;28;20091;-74
2022/05/12 01:03:28;;;;;;;1.45;0.82;;;19.50;53.30;;;;;;5073723;28;20135;-74
2022/05/12 01:05:55;;;;;;;2.17;1.00;;;20.20;58.00;;;;;;5073303;28;20468;-74
2022/05/12 01:08:22;;;;;;;2.10;1.00;;;19.50;53.30;;;;;;5085758;28;20429;-74
2022/05/12 01:10:52;;;;;;;0.80;0.80;;;19.50;53.30;;;;;;5093010;28;20138;-74
2022/05/12 01:13:19;;;;;;;2.03;1.00;;;19.40;53.30;;;;;;5093572;28;20052;-74
2022/05/12 01:15:51;;;;;;;1.23;1.00;;;19.50;58.10;;;;;;5093526;28;20056;-74
2022/05/12 01:18:18;;;;;;;1.90;1.05;;;19.50;59.20;;;;;;5093736;28;20059;-74
2022/05/12 01:20:45;;;;;;;1.55;1.00;;;19.40;53.30;;;;;;5090703;28;20055;-74
2022/05/12 01:23:23;;;;;;;1.65;1.00;;;19.40;57.90;;;;;;5073474;28;20409;-74
2022/05/12 01:25:50;;;;;;;1.20;0.80;;;19.40;57.80;;;;;;5073066;28;20052;-74
2022/05/12 01:28:17;;;;;;;2.22;1.05;;;19.70;58.20;;;;;;5073162;28;20139;-74
2022/05/12 01:30:44;;;;;;;1.55;1.00;;;19.30;57.70;;;;;;5106976;28;20140;-74
2022/05/12 01:33:10;;;;;;;1.80;1.08;;;19.90;57.60;;;;;;5072703;28;20056;-74
2022/05/12 01:35:38;;;;;;;1.38;0.82;;;19.60;58.60;;;;;;5073126;28;20518;-75
2022/05/12 01:38:05;;;;;;;1.58;1.00;;;19.30;53.30;;;;;;5074375;28;20140;-75
2022/05/12 01:40:33;;;;;;;2.13;0.98;;;19.20;57.60;;;;;;5106776;28;20063;-74
2022/05/12 01:43:00;;;;;;;2.95;0.93;;;19.60;57.90;;;;;;5072924;28;20135;-75
2022/05/12 01:45:27;;;;;;;1.38;0.93;;;19.30;59.30;;;;;;5071975;28;20132;-74
2022/05/12 01:47:54;;;;;;;0.70;0.70;;;20.00;58.10;;;;;;5073884;28;20052;-75
2022/05/12 01:50:21;;;;;;;1.08;0.80;;;19.30;57.70;;;;;;5072494;28;20044;-74
2022/05/12 01:52:48;;;;;;;1.52;0.90;;;19.30;53.30;;;;;;5072907;28;20140;-75
2022/05/12 01:55:15;;;;;;;1.25;0.82;;;19.30;53.30;;;;;;5106359;28;20145;-74
2022/05/12 01:57:43;;;;;;;1.00;0.70;;;19.90;57.60;;;;;;5072468;28;20048;-74
2022/05/12 02:00:12;;;;;;;1.55;0.95;;;19.30;57.30;;;;;;5072222;28;20516;-74
2022/05/12 02:02:39;;;;;;;1.25;0.95;;;20.20;59.00;;;;;;5114826;27;20048;-74
2022/05/12 02:05:09;;;;;;;0.80;0.80;;;19.50;57.80;;;;;;5072384;28;20056;-75
2022/05/12 02:07:37;;;;;;;0.68;0.68;;;19.20;53.30;;;;;;5072078;28;20133;-74
2022/05/12 02:10:05;;;;;;;1.20;0.80;;;18.40;57.00;;;;;;5072253;28;20159;-74
2022/05/12 02:12:31;;;;;;;0.95;0.70;;;19.30;57.90;;;;;;5072293;28;20155;-74
2022/05/12 02:14:59;;;;;;;1.55;0.90;;;19.00;57.40;;;;;;5072150;28;20052;-75
2022/05/12 02:17:26;;;;;;;1.20;0.80;;;18.20;56.70;;;;;;5073257;28;20075;-74
2022/05/12 02:19:53;;;;;;;1.52;0.90;;;19.00;57.70;;;;;;5126468;27;20485;-74
2022/05/12 02:22:20;;;;;;;0.88;0.68;;;19.90;59.60;;;;;;5086058;28;20052;-74
2022/05/12 02:24:46;;;;;;;0.93;0.80;;;19.20;53.30;;;;;;5072027;28;20056;-75
2022/05/12 02:27:13;;;;;;;0.77;0.73;;;19.10;57.40;;;;;;5071829;28;20060;-74
2022/05/12 02:29:40;;;;;;;1.70;0.80;;;19.10;53.30;;;;;;5071459;28;20049;-74
2022/05/12 02:32:08;;;;;;;1.85;0.80;;;18.90;58.00;;;;;;5071850;28;20060;-74
2022/05/12 02:34:35;;;;;;;1.20;0.80;;;18.70;57.50;;;;;;5074096;28;20051;-74
2022/05/12 02:37:03;;;;;;;1.27;0.90;;;19.90;59.40;;;;;;5071577;28;20048;-74
2022/05/12 02:39:30;;;;;;;1.50;0.90;;;19.20;57.30;;;;;;5105633;28;20110;-74
2022/05/12 02:41:57;;;;;;;2.08;0.80;;;19.10;57.10;;;;;;5071514;28;20402;-75
2022/05/12 02:44:24;;;;;;;2.00;0.73;;;18.90;58.40;;;;;;5073002;28;20045;-74
2022/05/12 02:46:51;;;;;;;1.60;0.90;;;19.00;53.30;;;;;;5071593;28;20048;-75
2022/05/12 02:49:19;;;;;;;0.98;0.90;;;19.10;53.30;;;;;;5071443;28;20513;-74
2022/05/12 02:51:47;;;;;;;0.80;0.77;;;19.00;53.30;;;;;;5091009;28;20149;-75
2022/05/12 02:54:14;;;;;;;0.95;0.80;;;18.60;57.20;;;;;;5092026;28;20060;-74
2022/05/12 02:56:41;;;;;;;1.60;0.90;;;19.00;53.30;;;;;;5090762;28;20503;-74
2022/05/12 02:59:07;;;;;;;2.05;0.85;;;19.10;53.40;;;;;;5091380;28;20130;-74
2022/05/12 03:01:34;;;;;;;0.75;0.75;;;19.10;57.80;;;;;;5091514;28;20138;-74
2022/05/12 03:04:01;;;;;;;1.33;0.95;;;19.00;53.30;;;;;;5091692;28;20056;-75
2022/05/12 03:06:29;;;;;;;1.23;0.88;;;19.00;53.30;;;;;;5087645;28;20046;-75
2022/05/12 03:08:56;;;;;;;1.77;1.10;;;19.00;53.30;;;;;;5080242;28;20052;-75
2022/05/12 03:11:22;;;;;;;1.77;1.10;;;18.40;57.20;;;;;;5070987;28;20052;-74
2022/05/12 03:13:50;;;;;;;1.60;1.10;;;19.00;53.30;;;;;;5071376;28;20614;-74
2022/05/12 03:16:18;;;;;;;1.48;1.10;;;19.00;58.20;;;;;;5071346;28;20048;-74
2022/05/12 03:18:46;;;;;;;1.20;0.98;;;18.10;57.40;;;;;;5071000;28;20087;-74
2022/05/12 03:21:13;;;;;;;3.90;1.30;;;18.90;57.80;;;;;;5070813;28;20045;-74
2022/05/12 03:23:41;;;;;;;2.65;1.40;;;19.20;57.70;;;;;;5089284;28;20055;-75
2022/05/12 03:26:08;;;;;;;1.90;1.20;;;18.90;53.30;;;;;;5091281;28;20135;-74
2022/05/12 03:28:35;;;;;;;1.58;1.20;;;18.90;58.20;;;;;;5091113;28;20080;-74
2022/05/12 03:31:02;;;;;;;2.75;1.40;;;19.00;57.50;;;;;;5090618;28;20504;-75
2022/05/12 03:33:29;;;;;;;3.00;1.40;;;19.00;57.40;;;;;;5091103;28;20052;-74
2022/05/12 03:35:56;;;;;;;2.03;1.30;;;18.10;58.00;;;;;;5090585;28;20072;-75
2022/05/12 03:38:23;;;;;;;2.50;1.23;;;18.30;57.90;;;;;;5089502;28;20058;-74
2022/05/12 03:40:51;;;;;;;1.52;1.23;;;18.80;53.30;;;;;;5091650;28;20690;-74
2022/05/12 03:45:58;;;;;;;2.15;1.42;;;19.00;57.50;;;;;;5089748;28;20048;-75
2022/05/12 03:48:25;;;;;;;1.95;1.30;;;18.80;57.60;;;;;;5091160;28;20056;-75
2022/05/12 03:50:52;;;;;;;1.75;1.08;;;18.80;59.70;;;;;;5091938;28;20044;-74
2022/05/12 03:53:19;;;;;;;2.45;1.35;;;18.80;53.40;;;;;;5091049;28;20055;-74
2022/05/12 03:55:45;;;;;;;2.78;1.48;;;19.80;59.20;;;;;;5088743;28;20054;-74
2022/05/12 03:58:13;;;;;;;1.23;1.10;;;18.40;57.10;;;;;;5125142;27;20047;-74
2022/05/12 04:00:40;;;;;;;2.38;1.40;;;19.50;57.80;;;;;;5090349;28;20056;-74
2022/05/12 04:03:07;;;;;;;2.22;1.20;;;18.90;57.70;;;;;;5090968;28;20465;-74
2022/05/12 04:05:34;;;;;;;1.77;1.30;;;17.70;58.00;;;;;;5090413;28;20054;-74
2022/05/12 04:08:00;;;;;;;2.42;1.38;;;18.70;53.30;;;;;;5091264;28;20052;-74
2022/05/12 04:10:27;;;;;;;1.63;1.20;;;18.70;53.30;;;;;;5094834;28;20481;-73
2022/05/12 04:12:54;;;;;;;2.03;1.27;;;19.10;58.60;;;;;;5094067;28;20059;-73
2022/05/12 04:15:22;;;;;;;2.25;1.20;;;18.10;56.80;;;;;;5094775;28;20592;-75
2022/05/12 04:17:56;;;;;;;1.80;1.20;;;19.00;57.90;;;;;;5094739;28;20471;-74
2022/05/12 04:20:22;;;;;;;1.65;1.33;;;17.60;57.90;;;;;;5094638;28;20052;-74
2022/05/12 04:22:49;;;;;;;2.33;1.30;;;18.70;57.50;;;;;;5128865;27;20062;-74
2022/05/12 04:25:16;;;;;;;1.70;1.13;;;19.00;58.10;;;;;;5094656;28;20055;-74
2022/05/12 04:27:43;;;;;;;2.22;1.33;;;20.00;59.50;;;;;;5126848;27;20044;-74
2022/05/12 04:30:11;;;;;;;2.22;1.20;;;18.70;53.30;;;;;;5090110;28;20055;-75
2022/05/12 04:32:39;;;;;;;2.22;1.45;;;18.70;53.30;;;;;;5074328;28;20496;-75
2022/05/12 04:35:12;;;;;;;2.08;1.20;;;18.80;57.50;;;;;;5073822;28;20412;-74
2022/05/12 04:37:39;;;;;;;1.73;1.10;;;18.50;57.90;;;;;;5074383;28;20481;-74
2022/05/12 04:40:08;;;;;;;1.65;1.20;;;18.70;53.30;;;;;;5107361;28;20135;-74
2022/05/12 04:42:35;;;;;;;1.83;1.15;;;19.30;58.00;;;;;;5107882;28;20058;-74
2022/05/12 04:45:01;;;;;;;1.70;1.05;;;18.90;57.60;;;;;;5074788;28;20060;-74
2022/05/12 04:47:28;;;;;;;2.05;1.20;;;17.80;57.20;;;;;;5073643;28;20045;-74
2022/05/12 04:49:56;;;;;;;2.25;1.30;;;18.70;58.00;;;;;;5073667;28;20055;-75
2022/05/12 04:52:23;;;;;;;1.92;1.10;;;18.80;57.70;;;;;;5073528;28;20067;-74
2022/05/12 04:54:50;;;;;;;2.50;1.20;;;18.70;53.10;;;;;;5074032;28;20078;-74
2022/05/12 04:57:17;;;;;;;1.48;1.10;;;18.70;57.20;;;;;;5073185;28;20053;-75
2022/05/12 04:59:43;;;;;;;2.70;1.33;;;18.70;58.10;;;;;;5074480;28;20045;-75
2022/05/12 05:02:10;;;;;;;1.75;1.20;;;19.00;53.40;;;;;;5074745;28;20511;-75
2022/05/12 05:04:37;;;;;;;1.10;1.00;;;17.70;56.90;;;;;;5073490;28;20053;-74
2022/05/12 05:07:06;;;;;;;1.67;1.10;;;18.90;58.40;;;;;;5073378;28;20049;-74
2022/05/12 05:09:33;;;;;;;1.52;1.08;;;18.90;57.60;;;;;;5072969;28;20140;-74
2022/05/12 05:11:59;;;;;;;1.90;1.20;;;18.80;58.60;;;;;;5073302;28;20052;-74
2022/05/12 05:14:26;;;;;;;2.17;1.35;;;18.60;53.10;;;;;;5073422;28;20052;-74
2022/05/12 05:16:53;;;;;;;1.50;1.17;;;18.00;56.90;;;;;;5074565;28;20408;-74
2022/05/12 05:19:20;;;;;;;3.65;1.50;;;17.80;57.70;;;;;;5072635;28;20077;-74
2022/05/12 05:21:47;;;;;;;1.75;1.08;;;18.70;57.60;;;;;;5072528;28;20056;-74
2022/05/12 05:24:15;;;;;;;2.08;1.23;;;18.60;57.80;;;;;;5073188;28;20061;-74
2022/05/12 05:26:41;;;;;;;2.78;1.35;;;18.70;57.60;;;;;;5073146;28;20382;-74
2022/05/12 05:29:08;;;;;;;1.60;1.20;;;18.60;57.70;;;;;;5073061;28;20143;-74
2022/05/12 05:31:37;;;;;;;1.10;1.00;;;18.60;53.10;;;;;;5072895;28;20090;-75
2022/05/12 05:34:04;;;;;;;1.77;1.15;;;18.70;57.70;;;;;;5073641;28;20057;-74
2022/05/12 05:36:31;;;;;;;1.30;1.00;;;17.90;57.10;;;;;;5073026;28;20048;-74
2022/05/12 05:38:58;;;;;;;1.67;1.10;;;18.60;53.20;;;;;;5073979;28;20082;-74
2022/05/12 05:41:26;;;;;;;2.55;1.30;;;19.30;58.00;;;;;;5072416;28;20151;-74
2022/05/12 05:43:53;;;;;;;1.13;1.00;;;18.60;58.30;;;;;;5073015;28;20067;-74
2022/05/12 05:46:19;;;;;;;2.25;1.10;;;18.80;57.70;;;;;;5072577;28;20060;-74
2022/05/12 05:48:50;;;;;;;1.38;1.08;;;18.20;56.90;;;;;;5073896;28;20052;-74
2022/05/12 05:54:01;;;;;;;1.50;1.00;;;18.80;58.90;;;;;;5106583;28;20052;-71
2022/05/12 05:56:29;;;;;;;1.75;1.20;;;18.80;53.10;;;;;;5072557;28;20063;-72
2022/05/12 05:58:56;;;;;;;2.55;1.10;;;18.90;53.00;;;;;;5072623;28;20053;-72
2022/05/12 06:01:22;;;;;;;1.80;1.08;;;19.50;58.00;;;;;;5072486;28;20062;-72
2022/05/12 06:03:49;;;;;;;1.95;1.10;;;19.10;52.80;;;;;;5073557;28;20060;-73
2022/05/12 06:06:16;;;;;;;1.45;0.95;;;19.50;57.00;;;;;;5072527;28;20408;-72
2022/05/12 06:08:43;;;;;;;2.47;1.13;;;20.40;58.30;;;;;;5076444;28;20056;-74
2022/05/12 06:11:10;;;;;;;1.67;1.02;;;19.50;52.50;;;;;;5091895;28;20058;-74
2022/05/12 06:13:38;;;;;;;2.22;1.08;;;19.60;52.30;;;;;;5092577;28;20056;-74
2022/05/12 06:16:05;;;;;;;1.23;0.93;;;19.80;52.10;;;;;;5093661;28;20056;-74
2022/05/12 06:18:32;;;;;;;2.20;1.30;;;20.20;58.40;;;;;;5126245;27;20064;-75
2022/05/12 06:20:59;;;;;;;3.63;1.15;;;20.30;55.90;;;;;;5098987;28;20044;-74
2022/05/12 06:23:26;;;;;;;5.25;2.00;;;20.20;57.20;;;;;;5101236;28;20043;-73
2022/05/12 06:25:53;;;;;;;4.65;1.60;;;19.50;55.00;;;;;;5105725;28;20047;-74
2022/05/12 06:28:20;;;;;;;2.83;1.40;;;20.50;56.00;;;;;;5112328;28;20504;-74
2022/05/12 06:30:48;;;;;;;3.70;1.40;;;20.30;51.50;;;;;;5111613;28;20047;-74
2022/05/12 06:33:16;;;;;;;2.97;1.30;;;20.40;51.40;;;;;;5112510;28;20056;-74
2022/05/12 06:35:43;;;;;;;2.80;1.17;;;20.50;51.40;;;;;;5112483;28;20063;-75
2022/05/12 06:38:10;;;;;;;1.65;1.00;;;20.80;56.30;;;;;;5075583;28;20406;-74
2022/05/12 06:40:37;;;;;;;3.20;1.10;;;20.70;55.90;;;;;;5071485;28;20056;-74
2022/05/12 06:43:05;;;;;;;3.67;1.10;;;21.00;56.00;;;;;;5071756;28;20049;-74
2022/05/12 06:45:31;;;;;;;4.03;1.10;;;20.90;51.00;;;;;;5077396;28;20052;-74
2022/05/12 06:47:59;;;;;;;3.20;0.90;;;21.00;56.40;;;;;;5087205;28;20047;-74
2022/05/12 06:50:28;;;;;;;2.60;1.10;;;22.00;56.70;;;;;;5123130;27;20135;-74
2022/05/12 06:52:54;;;;;;;3.70;1.10;;;21.20;57.00;;;;;;5105516;28;20049;-74
2022/05/12 06:55:21;;;;;;;1.48;1.00;;;21.30;55.10;;;;;;5071414;28;20136;-74
2022/05/12 06:57:48;;;;;;;1.23;0.80;;;21.30;55.30;;;;;;5105246;28;20044;-74
2022/05/12 07:00:16;;;;;;;1.20;1.00;;;21.00;56.80;;;;;;5105290;28;20135;-74
2022/05/12 07:02:44;;;;;;;2.33;1.08;;;21.10;50.60;;;;;;5117147;27;20140;-75
2022/05/12 07:05:12;;;;;;;1.35;0.90;;;21.20;50.70;;;;;;5074387;28;20167;-75
2022/05/12 07:07:41;;;;;;;2.17;1.00;;;21.10;54.50;;;;;;5072148;28;20119;-74
2022/05/12 07:10:09;;;;;;;0.85;0.85;;;21.30;50.60;;;;;;5104868;28;20056;-74
2022/05/12 07:12:36;;;;;;;1.50;1.00;;;21.40;50.50;;;;;;5070706;28;20056;-74
2022/05/12 07:15:03;;;;;;;1.77;1.02;;;21.60;55.00;;;;;;5080315;28;20062;-74
2022/05/12 07:17:32;;;;;;;1.58;0.90;;;21.50;50.40;;;;;;5125646;27;20489;-75
2022/05/12 07:26:35;;;;;;;3.08;1.50;;;22.40;56.00;;;;;;5090408;28;20493;-75
2022/05/12 07:28:16;;;;;;;2.58;1.00;;;21.80;50.30;;;;;;5124976;27;20051;-75
2022/05/12 07:33:27;;;;;;;1.60;1.05;;;22.10;54.20;;;;;;5124490;27;20047;-74
2022/05/12 07:35:54;;;;;;;2.83;1.30;;;22.00;49.90;;;;;;5091228;28;20052;-74
2022/05/12 07:38:24;;;;;;;4.63;1.40;;;22.10;54.20;;;;;;5090981;28;20047;-74
2022/05/12 07:40:51;;;;;;;3.45;1.10;;;22.10;49.60;;;;;;5090423;28;20381;-74
2022/05/12 07:43:17;;;;;;;5.03;1.40;;;23.10;55.10;;;;;;5090611;28;20425;-73
2022/05/12 07:45:44;;;;;;;2.72;1.10;;;21.50;53.20;;;;;;5091032;28;20138;-73
2022/05/12 07:48:11;;;;;;;3.60;1.30;;;22.20;49.30;;;;;;5075792;28;20052;-74
2022/05/12 07:50:39;;;;;;;4.40;1.10;;;22.00;52.70;;;;;;5083354;28;20052;-73
2022/05/12 07:53:05;;;;;;;2.22;1.10;;;22.20;49.30;;;;;;5090897;28;20086;-74
2022/05/12 07:55:33;;;;;;;2.25;1.30;;;22.40;55.30;;;;;;5089928;28;20059;-74
2022/05/12 07:58:00;;;;;;;3.00;1.20;;;22.20;54.50;;;;;;5090766;28;20054;-74
2022/05/12 08:00:28;;;;;;;6.57;1.20;;;22.30;49.00;;;;;;5089968;28;20135;-74
2022/05/12 08:02:56;;;;;;;1.88;1.08;;;22.40;49.00;;;;;;5124302;28;20110;-74
2022/05/12 08:05:22;;;;;;;2.15;1.30;;;22.40;49.00;;;;;;5090859;28;20087;-74
2022/05/12 08:07:49;;;;;;;5.00;1.15;;;22.70;52.90;;;;;;5090492;28;20052;-74
2022/05/12 08:10:16;;;;;;;2.85;1.15;;;22.20;53.50;;;;;;5090278;28;20066;-74
2022/05/12 08:12:44;;;;;;;2.42;1.10;;;22.50;54.50;;;;;;5090635;28;20052;-74
2022/05/12 08:15:11;;;;;;;4.05;1.20;;;22.50;48.80;;;;;;5090632;28;20052;-74
2022/05/12 08:17:37;;;;;;;4.45;0.90;;;22.50;48.80;;;;;;5124540;28;20048;-75
2022/05/12 08:20:06;;;;;;;1.90;1.00;;;23.20;53.70;;;;;;5088485;28;20147;-74
2022/05/12 08:22:33;;;;;;;2.80;1.15;;;22.60;53.80;;;;;;5124896;28;20418;-74
2022/05/12 08:24:59;;;;;;;1.95;1.00;;;22.10;52.80;;;;;;5090380;28;20135;-74
2022/05/12 08:27:26;;;;;;;3.10;1.17;;;22.60;52.20;;;;;;5090469;28;20054;-74
2022/05/12 08:29:55;;;;;;;2.80;1.08;;;23.20;53.80;;;;;;5090340;28;20047;-75
2022/05/12 08:32:21;;;;;;;1.65;1.00;;;22.60;49.20;;;;;;5090495;28;20056;-73
2022/05/12 08:34:48;;;;;;;3.85;1.13;;;22.00;52.20;;;;;;5090342;28;20074;-73
2022/05/12 08:37:15;;;;;;;2.75;0.95;;;22.60;52.00;;;;;;5087510;28;20052;-74
2022/05/12 08:39:44;;;;;;;3.75;1.63;;;22.60;48.70;;;;;;5089883;28;20056;-74
2022/05/12 08:42:15;;;;;;;3.50;1.40;;;22.60;48.70;;;;;;5090467;28;20091;-73
2022/05/12 08:44:41;;;;;;;2.20;1.00;;;22.60;48.60;;;;;;5090502;28;20424;-73
2022/05/12 08:47:12;;;;;;;5.85;1.25;;;22.60;48.60;;;;;;5100949;28;20052;-73
2022/05/12 08:49:40;;;;;;;2.97;1.00;;;23.40;53.60;;;;;;5101323;28;20071;-73
2022/05/12 08:52:10;;;;;;;4.72;1.27;;;22.50;48.40;;;;;;5097944;28;20723;-73
2022/05/12 08:54:37;;;;;;;2.28;1.00;;;22.50;48.30;;;;;;5096855;28;20048;-73
2022/05/12 08:57:06;;;;;;;3.03;1.05;;;22.50;48.40;;;;;;5104813;28;20058;-73
2022/05/12 08:59:33;;;;;;;4.00;1.08;;;22.40;48.40;;;;;;5104223;28;20551;-74
2022/05/12 09:02:05;;;;;;;2.15;1.00;;;22.40;48.40;;;;;;5101595;28;20535;-73
2022/05/12 09:04:51;;;;;;;2.40;1.00;;;22.40;48.40;;;;;;5102407;28;20062;-73
2022/05/12 09:07:19;;;;;;;;;;;22.30;48.30;;;;;;5100167;28;20065;-73
2022/05/12 09:09:49;;;;;;;3.58;1.38;;;21.90;52.80;;;;;;5102710;28;19920;-73
2022/05/12 09:12:22;;;;;;;4.20;1.25;;;21.40;52.80;;;;;;5100129;28;20066;-73
2022/05/12 09:14:52;;;;;;;3.80;1.42;;;22.20;48.50;;;;;;5102413;28;20736;-74
2022/05/12 09:17:20;;;;;;;3.67;1.33;;;22.50;52.10;;;;;;5100898;28;20040;-74
2022/05/12 09:19:48;;;;;;;2.85;1.17;;;22.10;48.40;;;;;;5102622;28;20048;-73
2022/05/12 09:22:15;;;;;;;2.63;1.20;;;22.10;48.50;;;;;;5103820;28;20054;-73
2022/05/12 09:24:42;;;;;;;2.20;0.95;;;22.10;48.60;;;;;;5081423;28;20132;-73
2022/05/12 09:27:09;;;;;;;2.42;1.05;;;21.90;52.30;;;;;;5072741;28;20068;-74
2022/05/12 09:29:43;;;;;;;1.52;0.90;;;22.10;48.50;;;;;;5106824;28;20056;-74
2022/05/12 09:32:19;;;;;;;227.27;63.05;;;22.10;48.50;;;;;;5108207;28;20401;-74
2022/05/12 09:34:49;;;;;;;57.85;17.88;;;22.60;53.10;;;;;;5093436;28;20489;-74
2022/05/12 09:37:18;;;;;;;15.10;5.72;;;21.80;52.00;;;;;;5126623;27;20486;-74
2022/05/12 09:39:46;;;;;;;25.30;10.55;;;20.90;53.40;;;;;;5107822;28;20078;-74
2022/05/12 09:42:18;;;;;;;15.13;5.85;;;22.20;48.50;;;;;;5094321;28;20052;-74
2022/05/12 09:44:52;;;;;;;16.58;5.10;;;22.20;48.30;;;;;;5093032;28;20060;-74
2022/05/12 09:47:19;;;;;;;12.85;4.28;;;21.80;51.30;;;;;;5092726;28;20420;-74
2022/05/12 09:49:48;;;;;;;11.52;3.88;;;22.10;48.40;;;;;;5092634;28;20480;-74
2022/05/12 09:52:31;;;;;;;12.85;4.55;;;22.10;48.40;;;;;;5093982;28;20127;-74
2022/05/12 09:55:13;;;;;;;8.48;3.35;;;22.10;48.40;;;;;;5091945;28;20511;-74
2022/05/12 09:57:50;;;;;;;9.88;3.63;;;22.10;48.40;;;;;;5072317;28;20132;-74
2022/05/12 10:00:34;;;;;;;9.20;3.72;;;22.50;54.30;;;;;;5071782;28;20087;-74
2022/05/12 10:08:44;;;;;;;8.50;3.05;;;22.10;48.40;;;;;;5089135;28;20044;-74
2022/05/12 10:11:11;;;;;;;9.27;3.15;;;22.00;48.50;;;;;;5089836;28;20061;-73
2022/05/12 10:13:42;;;;;;;7.72;3.15;;;22.00;48.50;;;;;;5092565;28;20082;-74
2022/05/12 10:16:09;;;;;;;7.32;3.50;;;21.80;51.90;;;;;;5092428;28;20056;-74
2022/05/12 10:18:40;;;;;;;6.72;2.88;;;21.80;53.80;;;;;;5075233;28;20516;-74
2022/05/12 10:21:12;;;;;;;8.48;3.20;;;22.00;53.00;;;;;;5092180;28;20055;-74
2022/05/12 10:23:43;;;;;;;7.07;2.88;;;22.00;48.60;;;;;;5092445;28;20063;-74
2022/05/12 10:26:12;;;;;;;6.72;2.55;;;22.00;48.60;;;;;;5080819;28;20079;-74
2022/05/12 10:28:50;;;;;;;6.03;2.33;;;22.00;48.60;;;;;;5078275;28;20044;-74
2022/05/12 10:31:24;;;;;;;5.22;2.33;;;22.00;48.60;;;;;;5091990;28;20151;-74
2022/05/12 10:33:54;;;;;;;4.93;2.00;;;21.90;48.50;;;;;;5091754;28;20576;-74
2022/05/12 10:36:29;;;;;;;7.53;2.50;;;21.90;48.60;;;;;;5097418;28;20377;-73
2022/05/12 10:39:02;;;;;;;6.45;2.50;;;21.90;48.60;;;;;;5102191;28;20052;-73
2022/05/12 10:41:33;;;;;;;6.43;2.03;;;22.20;54.90;;;;;;5097137;28;20136;-74
2022/05/12 10:44:08;;;;;;;7.30;2.60;;;21.90;48.60;;;;;;5100476;28;20404;-73
2022/05/12 10:46:39;;;;;;;5.72;2.00;;;21.90;48.70;;;;;;5102847;28;20605;-74
2022/05/12 10:49:11;;;;;;;6.25;2.25;;;21.90;53.20;;;;;;5100733;28;20173;-74
2022/05/12 10:51:43;;;;;;;4.53;1.80;;;21.80;48.70;;;;;;5102647;28;20044;-73
2022/05/12 10:54:18;;;;;;;5.05;2.25;;;20.80;53.90;;;;;;5102373;28;20051;-73
2022/05/12 10:56:48;;;;;;;;;;;21.80;48.90;;;;;;5092865;28;20044;-73
2022/05/12 10:59:37;;;;;;;6.93;2.13;;;21.90;54.30;;;;;;5080297;28;19927;-73
2022/05/12 11:02:08;;;;;;;3.85;1.73;;;21.90;49.10;;;;;;5074469;28;20485;-73
2022/05/12 11:04:36;;;;;;;5.85;2.08;;;23.00;53.70;;;;;;5100249;28;20127;-73
2022/05/12 11:07:06;;;;;;;5.93;2.20;;;21.90;49.10;;;;;;5098437;28;20056;-73
2022/05/12 11:09:35;;;;;;;4.05;1.80;;;21.70;53.60;;;;;;5093035;28;20058;-73
2022/05/12 11:12:05;;;;;;;5.88;2.00;;;22.00;49.00;;;;;;5092428;28;20044;-73
2022/05/12 11:14:34;;;;;;;4.68;1.80;;;21.80;53.10;;;;;;5091279;28;20386;-73
2022/05/12 11:17:02;;;;;;;6.97;2.05;;;22.20;49.00;;;;;;5091078;28;20127;-75
2022/05/12 11:19:29;;;;;;;4.40;1.63;;;22.00;48.70;;;;;;5090297;28;20052;-75
2022/05/12 11:22:07;;;;;;;4.53;1.83;;;22.00;48.60;;;;;;5091048;28;20058;-73
2022/05/12 11:24:46;;;;;;;4.75;1.83;;;22.00;48.50;;;;;;5091093;28;20056;-74
2022/05/12 11:27:34;;;;;;;5.35;1.77;;;22.20;51.60;;;;;;5079632;28;20060;-74
2022/05/12 11:30:20;;;;;;;4.95;1.80;;;22.00;48.60;;;;;;5071129;28;20489;-74
2022/05/12 11:32:54;;;;;;;3.83;1.95;;;22.00;48.60;;;;;;5071665;28;20102;-74
2022/05/12 11:35:21;;;;;;;3.70;1.70;;;22.00;48.50;;;;;;5070930;28;20059;-74
2022/05/12 11:37:59;;;;;;;6.60;1.73;;;22.00;48.50;;;;;;5070925;28;20054;-72
2022/05/12 11:40:49;;;;;;;4.40;1.58;;;23.00;53.40;;;;;;5070758;28;20056;-72
2022/05/12 11:46:50;;;;;;;4.03;1.55;;;22.00;48.50;;;;;;5124936;27;20048;-72
2022/05/12 11:49:32;;;;;;;3.75;1.45;;;22.00;48.60;;;;;;5090970;28;20052;-73
2022/05/12 11:52:05;;;;;;;3.92;1.50;;;21.90;48.50;;;;;;5092037;28;20044;-73
2022/05/12 11:54:35;;;;;;;4.53;1.23;;;21.70;52.70;;;;;;5090972;28;20044;-72
2022/05/12 11:57:02;;;;;;;2.38;1.30;;;21.90;48.60;;;;;;5090705;28;20386;-73
2022/05/12 11:59:46;;;;;;;2.55;1.50;;;21.90;48.60;;;;;;5113868;28;20059;-73
2022/05/12 12:02:48;;;;;;;3.13;1.38;;;21.90;48.60;;;;;;5087456;28;20052;-73
2022/05/12 12:05:58;;;;;;;5.00;1.52;;;21.80;54.20;;;;;;5048466;28;20494;-72
2022/05/12 12:08:43;;;;;;;3.28;1.33;;;21.70;53.10;;;;;;5089913;28;20044;-72
2022/05/12 12:11:27;;;;;;;4.93;1.55;;;21.70;53.80;;;;;;5091228;28;20472;-72
2022/05/12 12:13:55;;;;;;;4.90;1.25;;;21.80;48.70;;;;;;5090384;28;20051;-74
2022/05/12 12:16:22;;;;;;;4.85;1.40;;;21.80;48.70;;;;;;5077788;28;20048;-73
2022/05/12 12:19:05;;;;;;;4.60;1.23;;;21.80;48.70;;;;;;5124784;28;20048;-73
2022/05/12 12:21:47;;;;;;;2.75;1.35;;;21.80;48.60;;;;;;5090248;28;20101;-74
2022/05/12 12:24:26;;;;;;;2.65;1.23;;;22.10;52.40;;;;;;5090588;28;20059;-74
2022/05/12 12:26:55;;;;;;;3.45;1.45;;;21.80;48.60;;;;;;5090494;28;20059;-73
2022/05/12 12:29:39;;;;;;;2.33;1.20;;;21.80;48.60;;;;;;5093922;28;20381;-74
2022/05/12 12:32:25;;;;;;;2.47;1.23;;;21.60;52.30;;;;;;5104140;28;20139;-74
2022/05/12 12:34:53;;;;;;;2.60;1.33;;;21.80;48.50;;;;;;5099880;28;20058;-73
2022/05/12 12:37:40;;;;;;;2.92;1.50;;;22.00;51.60;;;;;;5081629;28;20082;-72
2022/05/12 12:40:37;;;;;;;2.70;1.20;;;21.90;52.30;;;;;;5077332;28;20102;-72
2022/05/12 12:43:15;;;;;;;2.13;1.23;;;21.80;48.40;;;;;;5076931;28;20059;-73
2022/05/12 12:45:45;;;;;;;4.18;1.30;;;21.50;53.20;;;;;;5127486;27;20650;-72
2022/05/12 12:48:12;;;;;;;6.20;1.38;;;21.80;48.50;;;;;;5093716;28;20138;-74
2022/05/12 12:50:43;;;;;;;2.42;1.13;;;21.70;52.80;;;;;;5090580;28;20062;-74
2022/05/12 12:56:30;;;;;;;2.58;1.10;;;21.80;53.40;;;;;;5091886;28;20052;-74
2022/05/12 12:56:32;;;;;;;2.47;1.20;;;21.70;53.40;;;;;;5087903;28;20062;-74
2022/05/12 12:59:00;;;;;;;2.22;0.98;;;21.70;48.60;;;;;;5093943;28;20500;-74
2022/05/12 13:01:37;;;;;;;1.42;1.00;;;21.70;48.50;;;;;;5093806;28;20432;-74
2022/05/12 13:04:07;;;;;;;2.10;1.17;;;21.70;48.50;;;;;;5093112;28;20412;-74
2022/05/12 13:06:37;;;;;;;1.85;1.15;;;21.70;48.40;;;;;;5118813;27;20133;-74
2022/05/12 13:09:05;;;;;;;2.10;1.00;;;21.70;52.00;;;;;;5094499;28;20098;-74
2022/05/12 13:11:31;;;;;;;1.88;1.02;;;21.70;48.30;;;;;;5091988;28;20052;-74
2022/05/12 13:14:00;;;;;;;3.28;1.35;;;21.70;53.40;;;;;;5096396;28;20484;-74
2022/05/12 13:16:29;;;;;;;3.05;1.42;;;21.70;48.30;;;;;;5101721;28;20069;-74
2022/05/12 13:18:55;;;;;;;3.05;1.10;;;21.70;48.30;;;;;;5103358;28;20062;-74
2022/05/12 13:21:25;;;;;;;3.50;1.10;;;21.70;48.20;;;;;;5097771;28;20050;-74
2022/05/12 13:24:00;;;;;;;2.58;1.20;;;21.50;52.30;;;;;;5104914;28;20042;-74